Time;durP1;ratioP1;P1;durP2;ratioP2;P2;SDS_P1;SDS_P2;PMS_P1;PMS_P2;Temp;Humidity;BMP_temperature;BMP_pressure;BME280_temperature;BME280_humidity;BME280_pressure;Samples;Min_cycle;Max_cycle;Signal;HPM_P1;HPM_P2
2021/08/03 00:00:09;;;;;;;;;;;;;;;27.75;36.65;100069.81;4407234;32;35145;-87
2021/08/03 00:02:40;;;;;;;;;;;;;;;27.34;37.45;100071.00;4394560;32;34487;-87
2021/08/03 00:05:08;;;;;;;;;;;;;;;26.43;39.33;100073.38;4394919;32;33928;-87
2021/08/03 00:07:36;;;;;;;;;;;;;;;26.92;38.44;100071.47;4381455;32;35778;-87
2021/08/03 00:10:05;;;;;;;;;;;;;;;25.78;40.83;100076.53;4394571;32;34896;-87
2021/08/03 00:12:33;;;;;;;;;;;;;;;25.76;41.04;100082.00;4381458;32;34378;-87
2021/08/03 00:15:00;;;;;;;;;;;;;;;25.60;41.55;100077.19;4406981;32;34803;-87
2021/08/03 00:17:27;;;;;;;;;;;;;;;26.07;40.59;100087.28;4381831;32;35383;-87
2021/08/03 00:19:55;;;;;;;;;;;;;;;25.78;41.34;100081.88;4406831;32;35595;-87
2021/08/03 00:22:23;;;;;;;;;;;;;;;26.56;39.69;100075.75;4393782;32;34946;-87
2021/08/03 00:24:50;;;;;;;;;;;;;;;26.11;40.63;100078.03;4406781;32;33348;-87
2021/08/03 00:27:19;;;;;;;;;;;;;;;26.18;40.50;100072.97;4394370;32;36041;-87
2021/08/03 00:29:46;;;;;;;;;;;;;;;26.33;40.19;100076.88;4394035;32;34101;-87
2021/08/03 00:32:14;;;;;;;;;;;;;;;27.16;38.31;100081.66;4393866;32;34504;-87
2021/08/03 00:34:42;;;;;;;;;;;;;;;26.92;38.69;100084.81;4394324;32;33295;-87
2021/08/03 00:37:10;;;;;;;;;;;;;;;26.46;39.68;100084.63;4381425;32;35069;-87
2021/08/03 00:39:37;;;;;;;;;;;;;;;27.19;38.12;100083.22;4393888;32;35027;-87
2021/08/03 00:42:06;;;;;;;;;;;;;;;27.05;38.31;100078.34;4406423;32;33938;-87
2021/08/03 00:44:38;;;;;;;;;;;;;;;26.97;38.36;100076.38;4382200;32;35132;-87
2021/08/03 00:47:08;;;;;;;;;;;;;;;27.08;38.15;100084.22;4406455;32;34850;-86
2021/08/03 00:49:35;;;;;;;;;;;;;;;26.91;38.52;100083.16;4393892;32;34880;-87
2021/08/03 00:52:03;;;;;;;;;;;;;;;27.11;37.98;100083.06;4405898;32;34854;-87
2021/08/03 00:54:32;;;;;;;;;;;;;;;26.80;38.61;100091.34;4394296;32;33522;-87
2021/08/03 00:57:00;;;;;;;;;;;;;;;27.05;38.21;100091.72;4393653;32;36182;-87
2021/08/03 00:59:28;;;;;;;;;;;;;;;26.19;40.06;100097.84;4393878;32;34836;-87
2021/08/03 01:01:56;;;;;;;;;;;;;;;26.29;39.98;100085.34;4406101;32;35334;-87
2021/08/03 01:04:25;;;;;;;;;;;;;;;25.89;40.94;100097.78;4393159;32;34238;-87
2021/08/03 01:07:06;;;;;;;;;;;;;;;25.97;40.69;100089.91;4406154;32;34860;-87
2021/08/03 01:09:46;;;;;;;;;;;;;;;25.96;40.80;100093.56;4406094;32;35839;-87
2021/08/03 01:12:24;;;;;;;;;;;;;;;26.54;39.36;100088.37;4418904;32;34595;-86
2021/08/03 01:14:57;;;;;;;;;;;;;;;26.09;40.23;100085.31;4394151;32;33352;-86
2021/08/03 01:17:42;;;;;;;;;;;;;;;24.42;44.26;100090.84;4393627;32;34140;-86
2021/08/03 01:20:12;;;;;;;;;;;;;;;24.32;44.70;100093.44;4381179;32;35486;-86
2021/08/03 01:22:40;;;;;;;;;;;;;;;23.78;46.22;100097.81;4380416;32;34437;-86
2021/08/03 01:25:09;;;;;;;;;;;;;;;24.50;44.45;100104.38;4406158;32;33787;-86
2021/08/03 01:27:57;;;;;;;;;;;;;;;24.29;44.92;100107.00;4405792;32;35005;-86
2021/08/03 01:30:25;;;;;;;;;;;;;;;23.58;46.82;100096.75;4420161;32;34089;-86
2021/08/03 01:32:54;;;;;;;;;;;;;;;23.48;47.33;100100.16;4393361;32;35394;-86
2021/08/03 01:35:22;;;;;;;;;;;;;;;23.27;47.74;100107.19;4406684;32;33694;-87
2021/08/03 01:37:51;;;;;;;;;;;;;;;23.70;46.66;100101.09;4393349;32;36328;-86
2021/08/03 01:40:21;;;;;;;;;;;;;;;23.23;47.65;100101.25;4406518;32;34256;-86
2021/08/03 01:42:50;;;;;;;;;;;;;;;23.00;48.45;100103.84;4394206;32;34606;-86
2021/08/03 01:45:18;;;;;;;;;;;;;;;23.40;47.41;100105.25;4406240;32;33152;-86
2021/08/03 01:47:46;;;;;;;;;;;;;;;23.40;47.42;100099.94;4393034;32;34352;-86
2021/08/03 01:50:14;;;;;;;;;;;;;;;24.30;45.17;100098.88;4418129;32;34698;-86
2021/08/03 01:52:43;;;;;;;;;;;;;;;24.54;44.57;100108.47;4381758;32;34253;-86
2021/08/03 01:55:13;;;;;;;;;;;;;;;24.90;43.62;100108.19;4405657;32;33709;-86
2021/08/03 01:57:43;;;;;;;;;;;;;;;25.00;43.27;100107.25;4405594;32;34328;-86
2021/08/03 02:00:11;;;;;;;;;;;;;;;25.11;43.08;100108.97;4381068;32;35194;-86
2021/08/03 02:02:43;;;;;;;;;;;;;;;25.64;41.73;100105.28;4383275;32;34419;-86
2021/08/03 02:05:14;;;;;;;;;;;;;;;26.30;39.87;100100.38;4394523;32;34683;-86
2021/08/03 02:07:43;;;;;;;;;;;;;;;26.64;39.00;100098.06;4369478;32;35108;-86
2021/08/03 02:10:12;;;;;;;;;;;;;;;26.62;38.82;100100.06;4406133;32;34119;-86
2021/08/03 02:12:41;;;;;;;;;;;;;;;26.56;39.06;100105.97;4393816;32;32921;-86
2021/08/03 02:15:09;;;;;;;;;;;;;;;26.53;39.08;100106.25;4393278;32;34036;-87
2021/08/03 02:17:37;;;;;;;;;;;;;;;25.99;40.58;100103.97;4405610;32;34346;-86
2021/08/03 02:20:06;;;;;;;;;;;;;;;24.95;43.01;100101.47;4368761;32;35344;-86
2021/08/03 02:22:35;;;;;;;;;;;;;;;24.99;42.97;100099.38;4381335;32;34917;-86
2021/08/03 02:25:08;;;;;;;;;;;;;;;24.32;44.58;100110.25;4404800;32;33897;-86
2021/08/03 02:27:36;;;;;;;;;;;;;;;25.20;42.31;100114.53;4392914;32;35419;-86
2021/08/03 02:30:04;;;;;;;;;;;;;;;25.57;41.27;100109.50;4392947;32;35152;-86
2021/08/03 02:32:34;;;;;;;;;;;;;;;25.93;40.49;100107.19;4393016;32;35406;-86
2021/08/03 02:35:24;;;;;;;;;;;;;;;25.59;41.11;100118.19;4381485;32;34254;-87
2021/08/03 02:37:54;;;;;;;;;;;;;;;25.83;40.48;100115.19;4394860;32;35237;-86
2021/08/03 02:40:22;;;;;;;;;;;;;;;25.97;40.16;100113.94;4383298;32;35092;-86
2021/08/03 02:42:52;;;;;;;;;;;;;;;25.70;40.72;100117.28;4396463;32;33366;-86
2021/08/03 02:45:20;;;;;;;;;;;;;;;25.89;40.18;100118.28;4395706;32;33459;-86
2021/08/03 02:47:53;;;;;;;;;;;;;;;25.96;39.56;100117.59;4394906;32;35018;-87
2021/08/03 02:50:22;;;;;;;;;;;;;;;25.53;40.54;100115.22;4383266;32;35246;-86
2021/08/03 02:52:51;;;;;;;;;;;;;;;25.65;40.32;100117.66;4407561;32;34438;-86
2021/08/03 02:55:25;;;;;;;;;;;;;;;25.29;40.86;100121.72;4370839;32;32872;-86
2021/08/03 02:57:55;;;;;;;;;;;;;;;25.86;39.82;100124.75;4395045;32;35193;-86
2021/08/03 03:00:23;;;;;;;;;;;;;;;25.59;40.39;100126.19;4382398;32;34933;-86
2021/08/03 03:02:51;;;;;;;;;;;;;;;26.18;39.25;100123.72;4395475;32;34534;-86
2021/08/03 03:05:23;;;;;;;;;;;;;;;26.28;38.92;100124.53;4395398;32;34601;-86
2021/08/03 03:08:03;;;;;;;;;;;;;;;26.76;37.90;100127.34;4395301;32;34412;-87
2021/08/03 03:10:32;;;;;;;;;;;;;;;26.15;38.91;100129.31;4408112;32;34395;-87
2021/08/03 03:13:01;;;;;;;;;;;;;;;25.99;39.44;100136.00;4390536;32;35393;-87
2021/08/03 03:15:29;;;;;;;;;;;;;;;26.08;39.32;100139.69;4405594;32;33741;-86
2021/08/03 03:17:57;;;;;;;;;;;;;;;25.73;40.28;100145.47;4403402;32;33731;-87
2021/08/03 03:20:25;;;;;;;;;;;;;;;25.36;41.21;100146.91;4389446;32;35232;-87
2021/08/03 03:22:53;;;;;;;;;;;;;;;26.13;39.34;100144.63;4395341;32;34870;-86
2021/08/03 03:25:23;;;;;;;;;;;;;;;25.55;40.21;100153.28;4395260;32;33333;-87
2021/08/03 03:27:52;;;;;;;;;;;;;;;26.27;38.28;100146.91;4382632;32;35074;-88
2021/08/03 03:30:20;;;;;;;;;;;;;;;25.59;39.64;100152.87;4382457;32;35518;-87
2021/08/03 03:32:49;;;;;;;;;;;;;;;24.95;40.95;100159.25;4406564;32;35348;-87
2021/08/03 03:35:17;;;;;;;;;;;;;;;25.25;40.42;100162.94;4406805;32;34223;-86
2021/08/03 03:37:47;;;;;;;;;;;;;;;24.88;41.24;100166.09;4394933;32;35831;-86
2021/08/03 03:40:18;;;;;;;;;;;;;;;25.17;40.72;100167.13;4382068;32;35421;-87
2021/08/03 03:42:48;;;;;;;;;;;;;;;24.86;41.25;100166.19;4382299;32;33282;-87
2021/08/03 03:45:16;;;;;;;;;;;;;;;25.20;40.50;100165.19;4394256;32;33734;-87
2021/08/03 03:47:53;;;;;;;;;;;;;;;24.80;41.71;100166.75;4382459;32;34799;-86
2021/08/03 03:50:23;;;;;;;;;;;;;;;25.05;41.15;100168.19;4407403;32;34241;-89
2021/08/03 03:52:58;;;;;;;;;;;;;;;23.86;44.08;100169.88;4382112;32;34846;-87
2021/08/03 03:55:26;;;;;;;;;;;;;;;24.46;42.77;100170.38;4394607;32;32463;-87
2021/08/03 03:57:54;;;;;;;;;;;;;;;24.68;42.40;100172.09;4408173;32;34123;-87
2021/08/03 04:00:21;;;;;;;;;;;;;;;24.57;42.85;100165.94;4407387;32;34032;-87
2021/08/03 04:02:51;;;;;;;;;;;;;;;25.49;40.84;100174.19;4407325;32;34136;-87
2021/08/03 04:05:20;;;;;;;;;;;;;;;24.94;42.10;100171.75;4382682;32;33884;-87
2021/08/03 04:07:51;;;;;;;;;;;;;;;25.18;41.71;100171.47;4407539;32;35130;-87
2021/08/03 04:10:30;;;;;;;;;;;;;;;25.54;40.37;100172.94;4370208;32;36125;-87
2021/08/03 04:13:01;;;;;;;;;;;;;;;25.15;41.18;100168.22;4383100;32;35097;-86
2021/08/03 04:15:32;;;;;;;;;;;;;;;25.32;40.88;100164.94;4389043;32;34657;-86
2021/08/03 04:18:00;;;;;;;;;;;;;;;25.65;40.28;100164.84;4407192;32;34921;-86
2021/08/03 04:20:27;;;;;;;;;;;;;;;26.24;38.78;100167.69;4382181;32;33432;-86
2021/08/03 04:22:55;;;;;;;;;;;;;;;25.90;39.47;100170.66;4382079;32;34488;-86
2021/08/03 04:25:23;;;;;;;;;;;;;;;26.29;38.64;100168.97;4406303;32;34446;-87
2021/08/03 04:27:50;;;;;;;;;;;;;;;26.38;38.39;100177.09;4394234;32;34517;-87
2021/08/03 04:30:18;;;;;;;;;;;;;;;26.09;39.10;100169.94;4381016;32;35422;-87
2021/08/03 04:32:46;;;;;;;;;;;;;;;25.61;40.34;100171.44;4406821;32;34232;-87
2021/08/03 04:35:13;;;;;;;;;;;;;;;26.16;39.25;100168.38;4407102;32;33006;-87
2021/08/03 04:37:42;;;;;;;;;;;;;;;26.52;38.56;100165.19;4369474;32;35641;-87
2021/08/03 04:40:10;;;;;;;;;;;;;;;26.79;38.07;100164.47;4382109;32;34720;-86
2021/08/03 04:42:37;;;;;;;;;;;;;;;26.83;38.11;100160.53;4382075;32;35177;-86
2021/08/03 04:45:07;;;;;;;;;;;;;;;26.61;38.67;100170.50;4382712;32;32451;-85
2021/08/03 04:47:48;;;;;;;;;;;;;;;26.53;39.02;100173.06;4394346;32;35622;-86
2021/08/03 04:50:17;;;;;;;;;;;;;;;26.65;38.82;100171.91;4394386;32;35529;-86
2021/08/03 04:52:45;;;;;;;;;;;;;;;26.65;39.05;100169.25;4382315;32;34270;-86
2021/08/03 04:55:12;;;;;;;;;;;;;;;26.33;39.92;100165.03;4382869;32;34907;-85
2021/08/03 04:57:42;;;;;;;;;;;;;;;26.20;40.16;100161.78;4407790;32;34331;-86
2021/08/03 05:00:10;;;;;;;;;;;;;;;26.23;40.06;100168.66;4408996;32;34618;-85
2021/08/03 05:02:37;;;;;;;;;;;;;;;26.45;39.78;100167.56;4397217;32;34166;-85
2021/08/03 05:05:08;;;;;;;;;;;;;;;26.05;40.84;100169.34;4420325;32;34399;-86
2021/08/03 05:07:35;;;;;;;;;;;;;;;26.63;39.52;100176.56;4384577;32;35129;-86
2021/08/03 05:10:09;;;;;;;;;;;;;;;26.77;39.06;100180.66;4391653;32;36000;-87
2021/08/03 05:12:37;;;;;;;;;;;;;;;26.97;38.76;100178.81;4389490;32;34140;-87
2021/08/03 05:15:26;;;;;;;;;;;;;;;26.68;39.80;100184.16;4396626;32;33802;-87
2021/08/03 05:17:54;;;;;;;;;;;;;;;26.62;39.89;100188.25;4366444;32;34719;-87
2021/08/03 05:20:22;;;;;;;;;;;;;;;26.79;39.13;100184.06;4406060;32;34491;-85
2021/08/03 05:22:50;;;;;;;;;;;;;;;26.99;38.16;100189.34;4402339;32;34478;-85
2021/08/03 05:25:18;;;;;;;;;;;;;;;27.25;37.82;100189.59;4406604;32;33147;-85
2021/08/03 05:27:45;;;;;;;;;;;;;;;27.33;37.91;100187.03;4405951;32;35421;-91
2021/08/03 05:30:13;;;;;;;;;;;;;;;27.51;37.82;100194.34;4406425;32;34744;-85
2021/08/03 05:32:41;;;;;;;;;;;;;;;27.58;37.84;100189.25;4403487;32;33730;-87
2021/08/03 05:35:10;;;;;;;;;;;;;;;27.36;38.99;100187.75;4391173;32;33802;-89
2021/08/03 05:37:39;;;;;;;;;;;;;;;27.48;38.98;100195.47;4380361;32;35883;-88
2021/08/03 05:40:12;;;;;;;;;;;;;;;28.12;37.54;100189.41;4366861;32;34820;-86
2021/08/03 05:42:40;;;;;;;;;;;;;;;27.59;38.52;100196.25;4367335;32;34494;-89
2021/08/03 05:45:09;;;;;;;;;;;;;;;27.43;38.79;100191.53;4354674;32;34861;-89
2021/08/03 05:47:40;;;;;;;;;;;;;;;27.90;37.71;100186.13;4366334;32;35564;-88
2021/08/03 05:50:11;;;;;;;;;;;;;;;28.03;37.39;100180.47;4379529;32;34557;-89
2021/08/03 05:52:38;;;;;;;;;;;;;;;28.35;36.70;100178.25;4391230;32;34133;-89
2021/08/03 05:55:08;;;;;;;;;;;;;;;28.81;35.72;100179.03;4378723;32;33684;-89
2021/08/03 05:57:38;;;;;;;;;;;;;;;28.66;35.99;100184.09;4379137;32;33535;-90
2021/08/03 06:00:05;;;;;;;;;;;;;;;28.54;35.81;100182.63;4378469;32;34947;-87
2021/08/03 06:02:39;;;;;;;;;;;;;;;28.73;35.34;100187.88;4392225;32;33874;-87
2021/08/03 06:05:08;;;;;;;;;;;;;;;29.17;34.29;100189.69;4378629;32;33820;-90
2021/08/03 06:07:41;;;;;;;;;;;;;;;29.45;33.64;100193.09;4366470;32;35393;-88
2021/08/03 06:10:16;;;;;;;;;;;;;;;29.42;33.68;100188.00;4381059;32;34704;-88
2021/08/03 06:12:45;;;;;;;;;;;;;;;29.28;34.11;100196.69;4394260;32;34545;-88
2021/08/03 06:15:17;;;;;;;;;;;;;;;29.39;33.78;100192.87;4381445;32;33339;-88
2021/08/03 06:17:47;;;;;;;;;;;;;;;29.79;33.33;100204.81;4371135;32;35461;-88
2021/08/03 06:20:15;;;;;;;;;;;;;;;29.79;33.49;100207.50;4402106;32;33217;-89
2021/08/03 06:22:43;;;;;;;;;;;;;;;30.07;33.11;100212.66;4381543;32;34347;-89
2021/08/03 06:25:14;;;;;;;;;;;;;;;30.20;33.10;100209.53;4382987;32;32966;-88
2021/08/03 06:27:43;;;;;;;;;;;;;;;30.59;32.65;100209.75;4380508;32;34169;-89
2021/08/03 06:30:12;;;;;;;;;;;;;;;30.92;32.07;100211.62;4379129;32;33814;-89
2021/08/03 06:32:40;;;;;;;;;;;;;;;30.54;32.59;100214.81;4380505;32;34997;-90
2021/08/03 06:35:10;;;;;;;;;;;;;;;30.60;32.47;100216.84;4368405;32;33431;-90
2021/08/03 06:37:37;;;;;;;;;;;;;;;30.17;33.58;100221.44;4380836;32;34405;-89
2021/08/03 06:40:08;;;;;;;;;;;;;;;30.91;32.28;100224.25;4381477;32;35870;-89
2021/08/03 06:42:38;;;;;;;;;;;;;;;30.95;32.24;100222.06;4393538;32;34516;-90
2021/08/03 06:45:07;;;;;;;;;;;;;;;31.30;31.75;100215.47;4414016;32;34102;-89
2021/08/03 06:47:38;;;;;;;;;;;;;;;31.27;31.70;100221.22;4373494;32;34515;-90
2021/08/03 06:50:06;;;;;;;;;;;;;;;31.44;31.21;100215.78;4409244;32;35809;-89
2021/08/03 06:52:34;;;;;;;;;;;;;;;31.80;30.68;100218.06;4370235;32;34293;-90
2021/08/03 06:55:03;;;;;;;;;;;;;;;32.40;29.85;100221.13;4369819;32;33637;-90
2021/08/03 06:57:33;;;;;;;;;;;;;;;31.61;31.01;100222.00;4368835;32;36104;-90
2021/08/03 07:00:07;;;;;;;;;;;;;;;31.34;31.42;100221.38;4367798;32;34858;-90
2021/08/03 07:02:39;;;;;;;;;;;;;;;31.36;31.45;100229.28;4379510;32;32937;-90
2021/08/03 07:05:08;;;;;;;;;;;;;;;31.51;30.40;100226.72;4381073;32;33327;-90
2021/08/03 07:07:36;;;;;;;;;;;;;;;31.07;31.07;100230.66;4355338;32;35688;-90
2021/08/03 07:10:05;;;;;;;;;;;;;;;31.89;29.91;100230.47;4367834;32;34194;-90
2021/08/03 07:12:32;;;;;;;;;;;;;;;31.85;29.53;100223.75;4367154;32;33056;-89
2021/08/03 07:15:00;;;;;;;;;;;;;;;31.85;29.56;100222.94;4355182;32;33821;-90
2021/08/03 07:17:31;;;;;;;;;;;;;;;31.54;30.26;100216.44;4379578;32;34483;-90
2021/08/03 07:19:59;;;;;;;;;;;;;;;31.59;29.97;100211.38;4379413;32;35905;-90
2021/08/03 07:22:26;;;;;;;;;;;;;;;31.35;30.35;100212.25;4367428;32;34074;-89
2021/08/03 07:24:54;;;;;;;;;;;;;;;30.87;31.19;100209.44;4367374;32;32187;-90
2021/08/03 07:27:21;;;;;;;;;;;;;;;31.44;30.20;100199.63;4380191;32;34326;-89
2021/08/03 07:29:49;;;;;;;;;;;;;;;31.93;29.32;100198.62;4367392;32;33144;-90
2021/08/03 07:32:17;;;;;;;;;;;;;;;32.00;29.30;100199.59;4379707;32;33711;-87
2021/08/03 07:34:45;;;;;;;;;;;;;;;32.23;29.03;100197.00;4380326;32;33494;-89
2021/08/03 07:37:14;;;;;;;;;;;;;;;31.98;29.00;100194.41;4380465;32;34888;-89
2021/08/03 07:39:43;;;;;;;;;;;;;;;32.42;28.28;100201.06;4367946;32;35481;-91
2021/08/03 07:42:10;;;;;;;;;;;;;;;32.25;28.01;100203.03;4367800;32;35239;-90
2021/08/03 07:44:39;;;;;;;;;;;;;;;32.32;27.74;100202.31;4380125;32;33736;-88
2021/08/03 07:47:06;;;;;;;;;;;;;;;32.39;27.49;100204.13;4380202;32;34173;-89
2021/08/03 07:49:33;;;;;;;;;;;;;;;31.80;28.48;100207.28;4367782;32;35087;-88
2021/08/03 07:52:01;;;;;;;;;;;;;;;31.60;28.86;100212.22;4380147;32;35244;-91
2021/08/03 07:54:29;;;;;;;;;;;;;;;31.67;28.85;100205.16;4367812;32;33420;-89
2021/08/03 07:56:57;;;;;;;;;;;;;;;31.58;29.08;100212.38;4368119;32;34582;-89
2021/08/03 07:59:26;;;;;;;;;;;;;;;31.49;28.92;100216.13;4369352;32;33336;-89
2021/08/03 08:01:54;;;;;;;;;;;;;;;31.49;28.70;100226.87;4367731;32;34045;-90
2021/08/03 08:04:22;;;;;;;;;;;;;;;31.34;29.18;100224.06;4392921;32;33424;-89
2021/08/03 08:06:50;;;;;;;;;;;;;;;31.45;28.94;100233.63;4379974;32;34568;-87
2021/08/03 08:09:18;;;;;;;;;;;;;;;31.18;28.95;100243.78;4368394;32;35061;-86
2021/08/03 08:11:46;;;;;;;;;;;;;;;31.44;28.11;100256.16;4380133;32;33524;-86
2021/08/03 08:14:13;;;;;;;;;;;;;;;30.19;29.94;100256.19;4367324;32;32202;-86
2021/08/03 08:16:41;;;;;;;;;;;;;;;30.23;30.48;100266.44;4367803;32;34215;-88
2021/08/03 08:19:09;;;;;;;;;;;;;;;30.80;30.04;100267.63;4365270;32;33501;-86
2021/08/03 08:21:37;;;;;;;;;;;;;;;30.15;31.50;100256.53;4407194;32;32954;-87
2021/08/03 08:24:06;;;;;;;;;;;;;;;30.32;30.95;100254.72;4406842;32;34696;-87
2021/08/03 08:26:34;;;;;;;;;;;;;;;30.30;31.11;100251.38;4394814;32;35476;-86
2021/08/03 08:29:02;;;;;;;;;;;;;;;30.79;29.51;100250.66;4423197;32;34403;-87
2021/08/03 08:31:30;;;;;;;;;;;;;;;31.23;28.66;100257.56;4406295;32;34661;-87
2021/08/03 08:33:58;;;;;;;;;;;;;;;30.62;29.34;100263.22;4418959;32;33721;-86
2021/08/03 08:36:26;;;;;;;;;;;;;;;31.30;28.27;100258.56;4407989;32;34772;-87
2021/08/03 08:38:54;;;;;;;;;;;;;;;31.58;27.42;100246.56;4410605;32;33373;-87
2021/08/03 08:41:22;;;;;;;;;;;;;;;31.43;27.75;100257.19;4422998;32;33343;-91
2021/08/03 08:43:51;;;;;;;;;;;;;;;31.46;27.31;100257.69;4408994;32;32675;-87
2021/08/03 08:46:18;;;;;;;;;;;;;;;31.75;26.45;100250.06;4420156;32;35147;-88
2021/08/03 08:48:47;;;;;;;;;;;;;;;31.52;27.47;100258.84;4407903;32;34198;-89
2021/08/03 08:51:14;;;;;;;;;;;;;;;31.48;28.31;100247.59;4420250;32;34245;-88
2021/08/03 08:53:42;;;;;;;;;;;;;;;30.85;28.78;100249.12;4406984;32;34742;-92
2021/08/03 08:56:11;;;;;;;;;;;;;;;30.78;29.24;100248.09;4395080;32;34144;-89
2021/08/03 08:58:38;;;;;;;;;;;;;;;30.78;29.33;100242.72;4420015;32;35183;-90
2021/08/03 09:01:05;;;;;;;;;;;;;;;31.86;27.66;100233.53;4404236;32;34741;-90
2021/08/03 09:03:34;;;;;;;;;;;;;;;31.64;27.51;100217.13;4404688;32;33326;-89
2021/08/03 09:06:06;;;;;;;;;;;;;;;32.05;27.06;100218.78;4389339;32;35592;-88
2021/08/03 09:08:35;;;;;;;;;;;;;;;31.97;24.63;100208.03;4419623;32;34861;-89
2021/08/03 09:11:10;;;;;;;;;;;;;;;31.96;25.01;100204.53;4381902;32;34473;-90
2021/08/03 09:13:48;;;;;;;;;;;;;;;32.35;24.98;100205.50;4382348;32;34654;-89
2021/08/03 09:16:16;;;;;;;;;;;;;;;32.74;24.41;100199.16;4383344;32;35630;-88
2021/08/03 09:18:49;;;;;;;;;;;;;;;32.39;25.24;100203.28;4419942;32;34723;-88
2021/08/03 09:21:20;;;;;;;;;;;;;;;33.02;24.51;100205.84;4392317;32;34931;-89
2021/08/03 09:23:56;;;;;;;;;;;;;;;32.95;24.32;100203.88;4407642;32;33642;-89
2021/08/03 09:26:40;;;;;;;;;;;;;;;32.76;24.57;100205.22;4382116;32;34465;-87
2021/08/03 09:29:12;;;;;;;;;;;;;;;31.76;26.24;100204.09;4419933;32;33723;-88
2021/08/03 09:31:40;;;;;;;;;;;;;;;33.46;24.32;100207.78;4406575;32;34497;-87
2021/08/03 09:34:13;;;;;;;;;;;;;;;33.38;24.63;100202.47;4407163;32;34113;-88
2021/08/03 09:36:47;;;;;;;;;;;;;;;33.34;24.71;100206.56;4419607;32;36080;-87
2021/08/03 09:39:35;;;;;;;;;;;;;;;33.89;23.82;100213.37;4420180;32;34694;-87
2021/08/03 09:42:07;;;;;;;;;;;;;;;33.68;23.79;100202.44;4396858;32;34360;-87
2021/08/03 09:44:35;;;;;;;;;;;;;;;34.37;22.69;100203.94;4422418;32;33853;-88
2021/08/03 09:47:03;;;;;;;;;;;;;;;34.07;23.23;100201.31;4421235;32;34186;-88
2021/08/03 09:49:33;;;;;;;;;;;;;;;33.22;24.57;100201.59;4406612;32;34656;-88
2021/08/03 09:52:05;;;;;;;;;;;;;;;32.60;24.66;100191.81;4374054;32;945509;-88
2021/08/03 09:54:34;;;;;;;;;;;;;;;33.00;24.52;100189.00;4386621;32;34493;-87
2021/08/03 09:57:03;;;;;;;;;;;;;;;32.79;24.18;100190.53;4406672;32;34604;-89
2021/08/03 09:59:37;;;;;;;;;;;;;;;33.11;23.79;100186.69;4406595;32;35777;-88
2021/08/03 10:02:05;;;;;;;;;;;;;;;33.45;23.48;100192.59;4419239;32;34169;-88
2021/08/03 10:04:33;;;;;;;;;;;;;;;33.62;23.22;100177.03;4406485;32;33797;-88
2021/08/03 10:07:00;;;;;;;;;;;;;;;31.73;25.89;100184.75;4403479;32;34620;-87
2021/08/03 10:09:30;;;;;;;;;;;;;;;31.92;25.55;100180.78;4405695;32;35978;-89
2021/08/03 10:11:58;;;;;;;;;;;;;;;31.51;25.66;100189.00;4408682;32;34892;-88
2021/08/03 10:14:25;;;;;;;;;;;;;;;31.76;25.80;100187.09;4423180;32;33748;-87
2021/08/03 10:16:54;;;;;;;;;;;;;;;32.67;24.72;100190.09;4420606;32;33827;-88
2021/08/03 10:19:23;;;;;;;;;;;;;;;32.65;24.63;100186.75;4420589;32;34462;-88
2021/08/03 10:22:00;;;;;;;;;;;;;;;33.23;23.83;100188.94;4420712;32;34181;-88
2021/08/03 10:24:32;;;;;;;;;;;;;;;33.14;23.50;100186.31;4408605;32;32240;-86
2021/08/03 10:27:03;;;;;;;;;;;;;;;33.34;22.71;100183.09;4407404;32;36194;-87
2021/08/03 10:29:33;;;;;;;;;;;;;;;33.44;22.87;100182.81;4406511;32;36133;-86
2021/08/03 10:32:01;;;;;;;;;;;;;;;33.80;22.00;100182.09;4405865;32;35042;-87
2021/08/03 10:34:44;;;;;;;;;;;;;;;33.71;22.30;100183.19;4393755;32;32903;-86
2021/08/03 10:37:13;;;;;;;;;;;;;;;34.70;21.19;100176.37;4417875;32;33224;-88
2021/08/03 10:39:51;;;;;;;;;;;;;;;35.33;20.50;100164.75;4418251;32;33479;-87
2021/08/03 10:42:19;;;;;;;;;;;;;;;35.40;20.37;100171.06;4405543;32;33887;-87
2021/08/03 10:44:48;;;;;;;;;;;;;;;35.67;20.43;100173.91;4405984;32;33906;-87
2021/08/03 10:47:31;;;;;;;;;;;;;;;35.21;21.18;100175.28;4392544;32;33176;-87
2021/08/03 10:50:02;;;;;;;;;;;;;;;34.16;22.62;100169.56;4405798;32;35041;-86
2021/08/03 10:52:54;;;;;;;;;;;;;;;33.84;23.14;100164.47;4405807;32;35183;-87
2021/08/03 10:55:40;;;;;;;;;;;;;;;33.68;23.19;100175.44;4420286;32;34090;-86
2021/08/03 10:58:12;;;;;;;;;;;;;;;33.58;23.10;100163.06;4423633;32;34746;-86
2021/08/03 11:00:46;;;;;;;;;;;;;;;33.91;22.93;100175.34;4420525;32;33874;-86
2021/08/03 11:03:35;;;;;;;;;;;;;;;33.79;23.03;100159.63;4421098;32;33908;-88
2021/08/03 11:06:04;;;;;;;;;;;;;;;34.83;21.91;100156.72;4422121;32;33076;-88
2021/08/03 11:08:35;;;;;;;;;;;;;;;35.48;21.38;100157.34;4408032;32;34373;-89
2021/08/03 11:11:07;;;;;;;;;;;;;;;35.06;21.75;100162.72;4420877;32;34377;-87
2021/08/03 11:13:38;;;;;;;;;;;;;;;34.58;22.10;100159.81;4422755;32;34120;-89
2021/08/03 11:16:10;;;;;;;;;;;;;;;32.80;23.94;100157.12;4405430;32;33528;-89
2021/08/03 11:18:42;;;;;;;;;;;;;;;31.91;25.01;100158.41;4405177;32;34498;-87
2021/08/03 11:21:13;;;;;;;;;;;;;;;31.28;25.40;100152.91;4404170;32;34405;-87
2021/08/03 11:24:01;;;;;;;;;;;;;;;32.44;24.08;100146.97;4422922;32;34213;-88
2021/08/03 11:26:52;;;;;;;;;;;;;;;33.24;23.63;100136.59;4391416;32;34790;-88
2021/08/03 11:29:25;;;;;;;;;;;;;;;33.77;23.00;100134.63;4405455;32;33683;-88
2021/08/03 11:31:57;;;;;;;;;;;;;;;33.90;22.75;100128.56;4420931;32;34424;-88
2021/08/03 11:34:27;;;;;;;;;;;;;;;33.69;22.76;100131.19;4420885;32;34690;-88
2021/08/03 11:36:54;;;;;;;;;;;;;;;33.91;21.78;100126.72;4407766;32;34135;-89
2021/08/03 11:39:22;;;;;;;;;;;;;;;34.01;21.92;100116.44;4420433;32;35108;-89
2021/08/03 11:41:51;;;;;;;;;;;;;;;34.53;21.21;100113.59;4407300;32;34572;-89
2021/08/03 11:44:18;;;;;;;;;;;;;;;34.81;21.16;100094.66;4421719;32;34662;-88
2021/08/03 11:46:52;;;;;;;;;;;;;;;35.33;20.68;100087.09;4423484;32;33055;-88
2021/08/03 11:49:25;;;;;;;;;;;;;;;35.37;20.52;100076.66;4407602;32;34915;-88
2021/08/03 11:51:53;;;;;;;;;;;;;;;35.43;20.58;100070.44;4419846;32;35562;-89
2021/08/03 11:54:21;;;;;;;;;;;;;;;35.58;20.26;100068.41;4408310;32;33283;-89
2021/08/03 11:56:48;;;;;;;;;;;;;;;35.48;20.11;100064.44;4407701;32;32222;-89
2021/08/03 11:59:15;;;;;;;;;;;;;;;35.65;19.27;100051.31;4408246;32;35570;-89
2021/08/03 12:01:46;;;;;;;;;;;;;;;33.97;20.68;100058.34;4408151;32;35485;-89
2021/08/03 12:04:15;;;;;;;;;;;;;;;34.07;20.89;100055.34;4408157;32;34570;-89
2021/08/03 12:06:42;;;;;;;;;;;;;;;35.14;19.57;100041.75;4409520;32;34724;-89
2021/08/03 12:09:10;;;;;;;;;;;;;;;34.56;19.94;100032.06;4424248;32;33598;-89
2021/08/03 12:11:38;;;;;;;;;;;;;;;34.59;20.06;100032.47;4400749;32;34573;-89
2021/08/03 12:14:09;;;;;;;;;;;;;;;35.23;19.43;100022.41;4423486;32;34255;-88
2021/08/03 12:16:37;;;;;;;;;;;;;;;34.79;19.93;100031.78;4410074;32;34074;-88
2021/08/03 12:19:05;;;;;;;;;;;;;;;35.17;19.68;100022.41;4410301;32;34358;-87
2021/08/03 12:21:36;;;;;;;;;;;;;;;35.79;19.09;100009.66;4384170;32;34596;-87
2021/08/03 12:24:05;;;;;;;;;;;;;;;35.72;19.30;100008.84;4409914;32;35360;-88
2021/08/03 12:26:32;;;;;;;;;;;;;;;35.88;19.09;100005.75;4397853;32;33898;-89
2021/08/03 12:28:59;;;;;;;;;;;;;;;35.68;19.29;100005.69;4397654;32;34390;-89
2021/08/03 12:31:37;;;;;;;;;;;;;;;35.86;19.31;100009.72;4387113;32;35659;-89
2021/08/03 12:34:16;;;;;;;;;;;;;;;36.11;18.86;100001.78;4429855;32;34223;-90
2021/08/03 12:36:45;;;;;;;;;;;;;;;36.23;18.73;99999.28;4422200;32;34221;-89
2021/08/03 12:39:20;;;;;;;;;;;;;;;36.48;18.63;99990.53;4410047;32;35282;-90
2021/08/03 12:42:00;;;;;;;;;;;;;;;36.47;18.60;99997.00;4419465;32;35345;-88
2021/08/03 12:44:29;;;;;;;;;;;;;;;36.75;18.23;99997.56;4419124;32;34867;-88
2021/08/03 12:47:07;;;;;;;;;;;;;;;36.91;18.16;100001.69;4382747;32;33619;-90
2021/08/03 12:49:35;;;;;;;;;;;;;;;36.33;18.88;99999.72;4406477;32;34820;-88
2021/08/03 12:52:07;;;;;;;;;;;;;;;36.80;18.49;99991.47;4420120;32;34734;-89